sensor_id;sensor_type;location;lat;lon;timestamp;P1;durP1;ratioP1;P2;durP2;ratioP2
19828;SDS011;10075;50.924;4.396;2022-07-23T00:01:43;20.92;;;16.02;;
19828;SDS011;10075;50.924;4.396;2022-07-23T00:04:12;19.25;;;15.25;;
19828;SDS011;10075;50.924;4.396;2022-07-23T00:06:39;18.85;;;15.38;;
19828;SDS011;10075;50.924;4.396;2022-07-23T00:09:08;22.67;;;16.70;;
19828;SDS011;10075;50.924;4.396;2022-07-23T00:11:34;23.55;;;16.45;;
19828;SDS011;10075;50.924;4.396;2022-07-23T00:14:01;18.13;;;14.65;;
19828;SDS011;10075;50.924;4.396;2022-07-23T00:16:28;19.40;;;14.25;;
19828;SDS011;10075;50.924;4.396;2022-07-23T00:18:55;21.45;;;15.38;;
19828;SDS011;10075;50.924;4.396;2022-07-23T00:21:22;20.77;;;16.98;;
19828;SDS011;10075;50.924;4.396;2022-07-23T00:23:49;21.15;;;16.75;;
19828;SDS011;10075;50.924;4.396;2022-07-23T00:26:18;21.52;;;16.77;;
19828;SDS011;10075;50.924;4.396;2022-07-23T00:28:45;17.63;;;15.73;;
19828;SDS011;10075;50.924;4.396;2022-07-23T00:31:12;19.27;;;16.60;;
19828;SDS011;10075;50.924;4.396;2022-07-23T00:33:39;22.15;;;17.85;;
19828;SDS011;10075;50.924;4.396;2022-07-23T00:36:06;19.42;;;17.15;;
19828;SDS011;10075;50.924;4.396;2022-07-23T00:38:33;20.42;;;16.50;;
19828;SDS011;10075;50.924;4.396;2022-07-23T00:41:00;19.02;;;16.63;;
19828;SDS011;10075;50.924;4.396;2022-07-23T00:43:28;23.33;;;17.60;;
19828;SDS011;10075;50.924;4.396;2022-07-23T00:45:55;19.02;;;16.63;;
19828;SDS011;10075;50.924;4.396;2022-07-23T00:48:22;25.27;;;17.85;;
19828;SDS011;10075;50.924;4.396;2022-07-23T00:50:49;22.02;;;16.95;;
19828;SDS011;10075;50.924;4.396;2022-07-23T00:53:16;22.23;;;17.20;;
19828;SDS011;10075;50.924;4.396;2022-07-23T00:55:43;20.50;;;18.27;;
19828;SDS011;10075;50.924;4.396;2022-07-23T00:58:10;23.65;;;18.10;;
19828;SDS011;10075;50.924;4.396;2022-07-23T01:00:40;24.10;;;18.02;;
19828;SDS011;10075;50.924;4.396;2022-07-23T01:03:07;27.42;;;19.40;;
19828;SDS011;10075;50.924;4.396;2022-07-23T01:05:34;24.13;;;20.05;;
19828;SDS011;10075;50.924;4.396;2022-07-23T01:08:01;24.75;;;18.38;;
19828;SDS011;10075;50.924;4.396;2022-07-23T01:10:28;23.48;;;17.75;;
19828;SDS011;10075;50.924;4.396;2022-07-23T01:12:57;22.02;;;17.92;;
19828;SDS011;10075;50.924;4.396;2022-07-23T01:15:24;22.30;;;18.33;;
19828;SDS011;10075;50.924;4.396;2022-07-23T01:17:53;22.50;;;17.80;;
19828;SDS011;10075;50.924;4.396;2022-07-23T01:20:20;23.65;;;16.75;;
19828;SDS011;10075;50.924;4.396;2022-07-23T01:22:48;24.33;;;17.13;;
19828;SDS011;10075;50.924;4.396;2022-07-23T01:25:16;18.83;;;15.73;;
19828;SDS011;10075;50.924;4.396;2022-07-23T01:27:43;22.67;;;17.55;;
19828;SDS011;10075;50.924;4.396;2022-07-23T01:30:11;21.27;;;17.48;;
19828;SDS011;10075;50.924;4.396;2022-07-23T01:32:39;24.05;;;18.15;;
19828;SDS011;10075;50.924;4.396;2022-07-23T01:35:06;22.65;;;16.75;;
19828;SDS011;10075;50.924;4.396;2022-07-23T01:37:34;25.00;;;17.42;;
19828;SDS011;10075;50.924;4.396;2022-07-23T01:40:03;20.67;;;17.27;;
19828;SDS011;10075;50.924;4.396;2022-07-23T01:42:32;21.83;;;18.10;;
19828;SDS011;10075;50.924;4.396;2022-07-23T01:44:59;20.48;;;17.33;;
19828;SDS011;10075;50.924;4.396;2022-07-23T01:47:26;21.55;;;17.33;;
19828;SDS011;10075;50.924;4.396;2022-07-23T01:49:52;22.00;;;18.30;;
19828;SDS011;10075;50.924;4.396;2022-07-23T01:52:19;20.58;;;17.85;;
19828;SDS011;10075;50.924;4.396;2022-07-23T01:54:46;21.98;;;16.65;;
19828;SDS011;10075;50.924;4.396;2022-07-23T01:57:15;26.17;;;18.98;;
19828;SDS011;10075;50.924;4.396;2022-07-23T01:59:42;25.52;;;19.95;;
19828;SDS011;10075;50.924;4.396;2022-07-23T02:02:09;27.45;;;21.08;;
19828;SDS011;10075;50.924;4.396;2022-07-23T02:04:35;23.33;;;19.13;;
19828;SDS011;10075;50.924;4.396;2022-07-23T02:07:03;22.05;;;17.85;;
19828;SDS011;10075;50.924;4.396;2022-07-23T02:09:30;26.33;;;18.48;;
19828;SDS011;10075;50.924;4.396;2022-07-23T02:11:57;25.73;;;18.60;;
19828;SDS011;10075;50.924;4.396;2022-07-23T02:14:26;25.05;;;18.95;;
19828;SDS011;10075;50.924;4.396;2022-07-23T02:16:53;26.45;;;18.20;;
19828;SDS011;10075;50.924;4.396;2022-07-23T02:19:20;25.88;;;19.17;;
19828;SDS011;10075;50.924;4.396;2022-07-23T02:21:47;22.73;;;17.85;;
19828;SDS011;10075;50.924;4.396;2022-07-23T02:24:14;23.92;;;18.98;;
19828;SDS011;10075;50.924;4.396;2022-07-23T02:26:41;28.10;;;19.85;;
19828;SDS011;10075;50.924;4.396;2022-07-23T02:29:09;24.52;;;19.20;;
19828;SDS011;10075;50.924;4.396;2022-07-23T02:31:37;23.20;;;17.77;;
19828;SDS011;10075;50.924;4.396;2022-07-23T02:34:04;22.85;;;16.92;;
19828;SDS011;10075;50.924;4.396;2022-07-23T02:36:32;20.00;;;15.57;;
19828;SDS011;10075;50.924;4.396;2022-07-23T02:38:59;20.23;;;16.17;;
19828;SDS011;10075;50.924;4.396;2022-07-23T02:41:26;20.95;;;16.73;;
19828;SDS011;10075;50.924;4.396;2022-07-23T02:43:55;21.92;;;17.60;;
19828;SDS011;10075;50.924;4.396;2022-07-23T02:46:22;22.45;;;19.02;;
19828;SDS011;10075;50.924;4.396;2022-07-23T02:48:50;21.65;;;16.23;;
19828;SDS011;10075;50.924;4.396;2022-07-23T02:51:17;25.80;;;17.42;;
19828;SDS011;10075;50.924;4.396;2022-07-23T02:53:44;20.27;;;17.33;;
19828;SDS011;10075;50.924;4.396;2022-07-23T02:56:11;19.30;;;16.42;;
19828;SDS011;10075;50.924;4.396;2022-07-23T02:58:38;25.25;;;17.70;;
19828;SDS011;10075;50.924;4.396;2022-07-23T03:01:05;20.33;;;16.90;;
19828;SDS011;10075;50.924;4.396;2022-07-23T03:03:32;20.95;;;16.77;;
19828;SDS011;10075;50.924;4.396;2022-07-23T03:06:00;21.45;;;15.52;;
19828;SDS011;10075;50.924;4.396;2022-07-23T03:08:27;20.38;;;15.32;;
19828;SDS011;10075;50.924;4.396;2022-07-23T03:10:54;20.35;;;16.42;;
19828;SDS011;10075;50.924;4.396;2022-07-23T03:13:21;22.52;;;15.40;;
19828;SDS011;10075;50.924;4.396;2022-07-23T03:15:48;17.27;;;14.70;;
19828;SDS011;10075;50.924;4.396;2022-07-23T03:18:15;22.63;;;15.18;;
19828;SDS011;10075;50.924;4.396;2022-07-23T03:20:42;18.58;;;15.52;;
19828;SDS011;10075;50.924;4.396;2022-07-23T03:23:10;19.20;;;15.23;;
19828;SDS011;10075;50.924;4.396;2022-07-23T03:25:37;19.55;;;15.15;;
19828;SDS011;10075;50.924;4.396;2022-07-23T03:28:04;19.63;;;16.23;;
19828;SDS011;10075;50.924;4.396;2022-07-23T03:30:31;19.20;;;15.27;;
19828;SDS011;10075;50.924;4.396;2022-07-23T03:32:58;22.63;;;18.20;;
19828;SDS011;10075;50.924;4.396;2022-07-23T03:35:25;21.42;;;17.42;;
19828;SDS011;10075;50.924;4.396;2022-07-23T03:37:52;22.58;;;17.23;;
19828;SDS011;10075;50.924;4.396;2022-07-23T03:40:20;24.80;;;18.38;;
19828;SDS011;10075;50.924;4.396;2022-07-23T03:42:47;23.63;;;18.50;;
19828;SDS011;10075;50.924;4.396;2022-07-23T03:45:15;23.95;;;18.30;;
19828;SDS011;10075;50.924;4.396;2022-07-23T03:47:42;25.52;;;18.27;;
19828;SDS011;10075;50.924;4.396;2022-07-23T03:50:09;22.05;;;17.15;;
19828;SDS011;10075;50.924;4.396;2022-07-23T03:52:37;26.70;;;17.80;;
19828;SDS011;10075;50.924;4.396;2022-07-23T03:55:04;25.33;;;19.13;;
19828;SDS011;10075;50.924;4.396;2022-07-23T03:57:33;20.17;;;16.92;;
19828;SDS011;10075;50.924;4.396;2022-07-23T04:00:00;24.48;;;18.77;;
19828;SDS011;10075;50.924;4.396;2022-07-23T04:02:27;28.77;;;19.10;;
19828;SDS011;10075;50.924;4.396;2022-07-23T04:04:54;21.17;;;17.77;;
19828;SDS011;10075;50.924;4.396;2022-07-23T04:07:21;26.27;;;18.48;;
19828;SDS011;10075;50.924;4.396;2022-07-23T04:09:48;26.77;;;19.23;;
19828;SDS011;10075;50.924;4.396;2022-07-23T04:12:15;23.27;;;17.05;;
19828;SDS011;10075;50.924;4.396;2022-07-23T04:14:44;20.55;;;17.27;;
19828;SDS011;10075;50.924;4.396;2022-07-23T04:17:11;21.70;;;16.10;;
19828;SDS011;10075;50.924;4.396;2022-07-23T04:19:38;21.42;;;16.35;;
19828;SDS011;10075;50.924;4.396;2022-07-23T04:22:06;18.85;;;14.43;;
19828;SDS011;10075;50.924;4.396;2022-07-23T04:24:33;22.85;;;17.13;;
19828;SDS011;10075;50.924;4.396;2022-07-23T04:27:00;21.08;;;16.17;;
19828;SDS011;10075;50.924;4.396;2022-07-23T04:29:28;25.33;;;18.10;;
19828;SDS011;10075;50.924;4.396;2022-07-23T04:31:56;21.27;;;17.60;;
19828;SDS011;10075;50.924;4.396;2022-07-23T04:34:23;24.02;;;18.13;;
19828;SDS011;10075;50.924;4.396;2022-07-23T04:36:51;21.80;;;17.52;;
19828;SDS011;10075;50.924;4.396;2022-07-23T04:39:18;25.08;;;18.45;;
19828;SDS011;10075;50.924;4.396;2022-07-23T04:41:46;21.55;;;17.63;;
19828;SDS011;10075;50.924;4.396;2022-07-23T04:44:12;24.38;;;17.17;;
19828;SDS011;10075;50.924;4.396;2022-07-23T04:46:39;21.17;;;17.15;;
19828;SDS011;10075;50.924;4.396;2022-07-23T04:49:08;23.42;;;16.75;;
19828;SDS011;10075;50.924;4.396;2022-07-23T04:51:35;21.85;;;17.20;;
19828;SDS011;10075;50.924;4.396;2022-07-23T04:54:02;23.40;;;16.17;;
19828;SDS011;10075;50.924;4.396;2022-07-23T04:56:29;18.25;;;16.35;;
19828;SDS011;10075;50.924;4.396;2022-07-23T04:58:56;18.23;;;15.60;;
19828;SDS011;10075;50.924;4.396;2022-07-23T05:01:23;21.00;;;17.17;;
19828;SDS011;10075;50.924;4.396;2022-07-23T05:03:50;26.65;;;18.15;;
19828;SDS011;10075;50.924;4.396;2022-07-23T05:06:18;26.50;;;18.63;;
19828;SDS011;10075;50.924;4.396;2022-07-23T05:08:45;22.48;;;18.35;;
19828;SDS011;10075;50.924;4.396;2022-07-23T05:11:12;21.80;;;17.10;;
19828;SDS011;10075;50.924;4.396;2022-07-23T05:13:39;23.25;;;18.10;;
19828;SDS011;10075;50.924;4.396;2022-07-23T05:16:06;21.08;;;17.30;;
19828;SDS011;10075;50.924;4.396;2022-07-23T05:18:33;22.02;;;16.85;;
19828;SDS011;10075;50.924;4.396;2022-07-23T05:21:00;22.75;;;17.45;;
19828;SDS011;10075;50.924;4.396;2022-07-23T05:23:28;19.85;;;16.00;;
19828;SDS011;10075;50.924;4.396;2022-07-23T05:25:55;20.10;;;16.08;;
19828;SDS011;10075;50.924;4.396;2022-07-23T05:28:22;22.38;;;14.88;;
19828;SDS011;10075;50.924;4.396;2022-07-23T05:30:49;17.95;;;13.10;;
19828;SDS011;10075;50.924;4.396;2022-07-23T05:33:17;18.20;;;13.95;;
19828;SDS011;10075;50.924;4.396;2022-07-23T05:35:45;17.45;;;13.73;;
19828;SDS011;10075;50.924;4.396;2022-07-23T05:38:12;19.38;;;14.48;;
19828;SDS011;10075;50.924;4.396;2022-07-23T05:40:40;18.05;;;14.07;;
19828;SDS011;10075;50.924;4.396;2022-07-23T05:43:07;14.88;;;13.07;;
19828;SDS011;10075;50.924;4.396;2022-07-23T05:45:34;21.38;;;14.00;;
19828;SDS011;10075;50.924;4.396;2022-07-23T05:48:01;17.52;;;13.80;;
19828;SDS011;10075;50.924;4.396;2022-07-23T05:50:28;20.27;;;14.98;;
19828;SDS011;10075;50.924;4.396;2022-07-23T05:52:55;17.35;;;13.77;;
19828;SDS011;10075;50.924;4.396;2022-07-23T05:55:22;20.23;;;14.63;;
19828;SDS011;10075;50.924;4.396;2022-07-23T05:57:51;18.58;;;14.75;;
19828;SDS011;10075;50.924;4.396;2022-07-23T06:00:17;16.08;;;13.65;;
19828;SDS011;10075;50.924;4.396;2022-07-23T06:02:44;15.40;;;12.50;;
19828;SDS011;10075;50.924;4.396;2022-07-23T06:05:11;18.83;;;12.70;;
19828;SDS011;10075;50.924;4.396;2022-07-23T06:07:38;18.80;;;12.82;;
19828;SDS011;10075;50.924;4.396;2022-07-23T06:10:06;15.85;;;12.10;;
19828;SDS011;10075;50.924;4.396;2022-07-23T06:12:34;15.07;;;13.07;;
19828;SDS011;10075;50.924;4.396;2022-07-23T06:15:03;14.68;;;12.73;;
19828;SDS011;10075;50.924;4.396;2022-07-23T06:17:30;13.98;;;12.02;;
19828;SDS011;10075;50.924;4.396;2022-07-23T06:19:58;14.45;;;12.55;;
19828;SDS011;10075;50.924;4.396;2022-07-23T06:22:25;16.27;;;11.02;;
19828;SDS011;10075;50.924;4.396;2022-07-23T06:24:52;15.68;;;11.70;;
19828;SDS011;10075;50.924;4.396;2022-07-23T06:27:18;15.98;;;11.80;;
19828;SDS011;10075;50.924;4.396;2022-07-23T06:29:45;12.70;;;10.98;;
19828;SDS011;10075;50.924;4.396;2022-07-23T06:32:14;13.82;;;10.43;;
19828;SDS011;10075;50.924;4.396;2022-07-23T06:34:41;12.82;;;10.50;;
19828;SDS011;10075;50.924;4.396;2022-07-23T06:37:07;15.15;;;11.30;;
19828;SDS011;10075;50.924;4.396;2022-07-23T06:39:34;12.60;;;9.38;;
19828;SDS011;10075;50.924;4.396;2022-07-23T06:42:01;11.82;;;9.23;;
19828;SDS011;10075;50.924;4.396;2022-07-23T06:44:28;11.88;;;9.13;;
19828;SDS011;10075;50.924;4.396;2022-07-23T06:46:55;11.52;;;9.60;;
19828;SDS011;10075;50.924;4.396;2022-07-23T06:49:24;12.32;;;9.73;;
19828;SDS011;10075;50.924;4.396;2022-07-23T06:51:50;12.80;;;9.63;;
19828;SDS011;10075;50.924;4.396;2022-07-23T06:54:17;10.82;;;8.27;;
19828;SDS011;10075;50.924;4.396;2022-07-23T06:56:44;12.43;;;9.18;;
19828;SDS011;10075;50.924;4.396;2022-07-23T06:59:11;13.32;;;8.75;;
19828;SDS011;10075;50.924;4.396;2022-07-23T07:01:38;14.95;;;10.43;;
19828;SDS011;10075;50.924;4.396;2022-07-23T07:04:05;14.30;;;10.35;;
19828;SDS011;10075;50.924;4.396;2022-07-23T07:06:33;13.70;;;11.02;;
19828;SDS011;10075;50.924;4.396;2022-07-23T07:09:00;13.63;;;10.73;;
19828;SDS011;10075;50.924;4.396;2022-07-23T07:11:28;13.25;;;10.13;;
19828;SDS011;10075;50.924;4.396;2022-07-23T07:13:55;12.05;;;10.35;;
19828;SDS011;10075;50.924;4.396;2022-07-23T07:16:21;11.77;;;10.50;;
19828;SDS011;10075;50.924;4.396;2022-07-23T07:18:48;15.18;;;11.05;;
19828;SDS011;10075;50.924;4.396;2022-07-23T07:21:16;16.70;;;11.05;;
19828;SDS011;10075;50.924;4.396;2022-07-23T07:23:44;13.88;;;11.07;;
19828;SDS011;10075;50.924;4.396;2022-07-23T07:26:11;13.57;;;10.77;;
19828;SDS011;10075;50.924;4.396;2022-07-23T07:28:38;14.77;;;9.77;;
19828;SDS011;10075;50.924;4.396;2022-07-23T07:31:05;12.88;;;10.65;;
19828;SDS011;10075;50.924;4.396;2022-07-23T07:33:32;15.32;;;10.38;;
19828;SDS011;10075;50.924;4.396;2022-07-23T07:35:58;13.25;;;9.98;;
19828;SDS011;10075;50.924;4.396;2022-07-23T07:38:26;15.05;;;10.27;;
19828;SDS011;10075;50.924;4.396;2022-07-23T07:40:54;14.25;;;10.18;;
19828;SDS011;10075;50.924;4.396;2022-07-23T07:43:21;12.82;;;11.10;;
19828;SDS011;10075;50.924;4.396;2022-07-23T07:45:48;11.88;;;9.23;;
19828;SDS011;10075;50.924;4.396;2022-07-23T07:48:15;17.10;;;9.90;;
19828;SDS011;10075;50.924;4.396;2022-07-23T07:50:42;14.45;;;9.00;;
19828;SDS011;10075;50.924;4.396;2022-07-23T07:53:09;13.75;;;8.45;;
19828;SDS011;10075;50.924;4.396;2022-07-23T07:55:36;13.05;;;9.38;;
19828;SDS011;10075;50.924;4.396;2022-07-23T07:58:04;13.57;;;9.30;;
19828;SDS011;10075;50.924;4.396;2022-07-23T08:00:31;11.60;;;9.07;;
19828;SDS011;10075;50.924;4.396;2022-07-23T08:02:59;9.95;;;8.95;;
19828;SDS011;10075;50.924;4.396;2022-07-23T08:05:26;12.40;;;6.95;;
19828;SDS011;10075;50.924;4.396;2022-07-23T08:07:55;9.20;;;7.35;;
19828;SDS011;10075;50.924;4.396;2022-07-23T08:10:23;15.98;;;7.90;;
19828;SDS011;10075;50.924;4.396;2022-07-23T08:12:51;12.13;;;7.88;;
19828;SDS011;10075;50.924;4.396;2022-07-23T08:15:23;11.27;;;7.60;;
19828;SDS011;10075;50.924;4.396;2022-07-23T08:17:50;12.18;;;7.15;;
19828;SDS011;10075;50.924;4.396;2022-07-23T08:20:18;11.30;;;8.25;;
19828;SDS011;10075;50.924;4.396;2022-07-23T08:22:47;11.05;;;6.70;;
19828;SDS011;10075;50.924;4.396;2022-07-23T08:25:16;11.00;;;6.30;;
19828;SDS011;10075;50.924;4.396;2022-07-23T08:27:46;11.60;;;8.02;;
19828;SDS011;10075;50.924;4.396;2022-07-23T08:30:14;9.85;;;6.95;;
19828;SDS011;10075;50.924;4.396;2022-07-23T08:32:50;13.05;;;8.65;;
19828;SDS011;10075;50.924;4.396;2022-07-23T08:35:21;12.82;;;9.30;;
19828;SDS011;10075;50.924;4.396;2022-07-23T08:37:50;9.80;;;7.95;;
19828;SDS011;10075;50.924;4.396;2022-07-23T08:40:17;10.05;;;7.22;;
19828;SDS011;10075;50.924;4.396;2022-07-23T08:42:46;10.40;;;6.28;;
19828;SDS011;10075;50.924;4.396;2022-07-23T08:45:15;12.23;;;7.32;;
19828;SDS011;10075;50.924;4.396;2022-07-23T08:47:44;6.95;;;5.82;;
19828;SDS011;10075;50.924;4.396;2022-07-23T08:50:13;12.30;;;6.72;;
19828;SDS011;10075;50.924;4.396;2022-07-23T08:52:40;12.20;;;7.68;;
19828;SDS011;10075;50.924;4.396;2022-07-23T08:55:07;9.32;;;7.40;;
19828;SDS011;10075;50.924;4.396;2022-07-23T08:57:35;8.73;;;6.65;;
19828;SDS011;10075;50.924;4.396;2022-07-23T09:00:03;9.38;;;7.18;;
19828;SDS011;10075;50.924;4.396;2022-07-23T09:02:31;7.95;;;6.50;;
19828;SDS011;10075;50.924;4.396;2022-07-23T09:05:05;10.38;;;7.75;;
19828;SDS011;10075;50.924;4.396;2022-07-23T09:07:34;13.13;;;7.85;;
19828;SDS011;10075;50.924;4.396;2022-07-23T09:10:05;10.05;;;6.60;;
19828;SDS011;10075;50.924;4.396;2022-07-23T09:12:33;8.75;;;6.30;;
19828;SDS011;10075;50.924;4.396;2022-07-23T09:15:04;11.63;;;7.18;;
19828;SDS011;10075;50.924;4.396;2022-07-23T09:17:38;9.95;;;6.65;;
19828;SDS011;10075;50.924;4.396;2022-07-23T09:20:07;10.82;;;7.63;;
19828;SDS011;10075;50.924;4.396;2022-07-23T09:22:37;10.52;;;6.80;;
19828;SDS011;10075;50.924;4.396;2022-07-23T09:25:05;7.57;;;5.70;;
19828;SDS011;10075;50.924;4.396;2022-07-23T09:27:47;6.00;;;4.90;;
19828;SDS011;10075;50.924;4.396;2022-07-23T09:30:19;6.68;;;4.93;;
19828;SDS011;10075;50.924;4.396;2022-07-23T09:33:06;8.90;;;5.97;;
19828;SDS011;10075;50.924;4.396;2022-07-23T09:35:44;9.15;;;5.75;;
19828;SDS011;10075;50.924;4.396;2022-07-23T09:38:14;13.15;;;6.93;;
19828;SDS011;10075;50.924;4.396;2022-07-23T09:40:42;9.57;;;6.90;;
19828;SDS011;10075;50.924;4.396;2022-07-23T09:43:10;10.35;;;6.72;;
19828;SDS011;10075;50.924;4.396;2022-07-23T09:45:37;7.88;;;6.28;;
19828;SDS011;10075;50.924;4.396;2022-07-23T09:48:12;8.68;;;5.53;;
19828;SDS011;10075;50.924;4.396;2022-07-23T09:50:41;7.32;;;5.60;;
19828;SDS011;10075;50.924;4.396;2022-07-23T09:53:09;9.38;;;4.75;;
19828;SDS011;10075;50.924;4.396;2022-07-23T09:55:50;8.55;;;5.00;;
19828;SDS011;10075;50.924;4.396;2022-07-23T09:58:21;6.35;;;4.10;;
19828;SDS011;10075;50.924;4.396;2022-07-23T10:00:51;5.68;;;3.40;;
19828;SDS011;10075;50.924;4.396;2022-07-23T10:03:19;6.05;;;4.53;;
19828;SDS011;10075;50.924;4.396;2022-07-23T10:05:46;5.78;;;4.68;;
19828;SDS011;10075;50.924;4.396;2022-07-23T10:08:14;8.07;;;4.35;;
19828;SDS011;10075;50.924;4.396;2022-07-23T10:10:44;7.47;;;3.35;;
19828;SDS011;10075;50.924;4.396;2022-07-23T10:13:15;3.33;;;2.50;;
19828;SDS011;10075;50.924;4.396;2022-07-23T10:15:56;4.40;;;2.90;;
19828;SDS011;10075;50.924;4.396;2022-07-23T10:18:23;4.32;;;2.72;;
19828;SDS011;10075;50.924;4.396;2022-07-23T10:20:50;5.72;;;3.65;;
19828;SDS011;10075;50.924;4.396;2022-07-23T10:23:19;5.78;;;4.15;;
19828;SDS011;10075;50.924;4.396;2022-07-23T10:25:55;6.40;;;3.70;;
19828;SDS011;10075;50.924;4.396;2022-07-23T10:28:39;5.80;;;3.00;;
19828;SDS011;10075;50.924;4.396;2022-07-23T10:31:14;5.25;;;3.80;;
19828;SDS011;10075;50.924;4.396;2022-07-23T10:33:54;4.38;;;3.30;;
19828;SDS011;10075;50.924;4.396;2022-07-23T10:36:29;3.88;;;3.05;;
19828;SDS011;10075;50.924;4.396;2022-07-23T10:39:04;4.53;;;3.05;;
19828;SDS011;10075;50.924;4.396;2022-07-23T10:41:35;5.35;;;3.97;;
19828;SDS011;10075;50.924;4.396;2022-07-23T10:44:09;6.53;;;3.70;;
19828;SDS011;10075;50.924;4.396;2022-07-23T10:46:46;4.88;;;4.38;;
19828;SDS011;10075;50.924;4.396;2022-07-23T10:49:27;5.63;;;4.47;;
19828;SDS011;10075;50.924;4.396;2022-07-23T10:52:16;5.43;;;4.25;;
19828;SDS011;10075;50.924;4.396;2022-07-23T10:54:45;4.30;;;2.97;;
19828;SDS011;10075;50.924;4.396;2022-07-23T10:57:14;7.72;;;3.88;;
19828;SDS011;10075;50.924;4.396;2022-07-23T11:02:53;7.35;;;3.25;;
19828;SDS011;10075;50.924;4.396;2022-07-23T11:05:22;4.22;;;2.80;;
19828;SDS011;10075;50.924;4.396;2022-07-23T11:08:13;6.88;;;3.72;;
19828;SDS011;10075;50.924;4.396;2022-07-23T11:10:42;3.88;;;3.47;;
19828;SDS011;10075;50.924;4.396;2022-07-23T11:13:30;6.68;;;3.58;;
19828;SDS011;10075;50.924;4.396;2022-07-23T11:16:08;4.03;;;2.90;;
19828;SDS011;10075;50.924;4.396;2022-07-23T11:18:57;4.93;;;2.90;;
19828;SDS011;10075;50.924;4.396;2022-07-23T11:21:41;5.68;;;3.70;;
19828;SDS011;10075;50.924;4.396;2022-07-23T11:24:19;5.72;;;3.40;;
19828;SDS011;10075;50.924;4.396;2022-07-23T11:26:48;6.15;;;3.47;;
19828;SDS011;10075;50.924;4.396;2022-07-23T11:32:19;5.15;;;3.17;;
19828;SDS011;10075;50.924;4.396;2022-07-23T11:35:21;6.03;;;4.07;;
19828;SDS011;10075;50.924;4.396;2022-07-23T11:37:50;6.07;;;3.70;;
19828;SDS011;10075;50.924;4.396;2022-07-23T11:40:23;5.43;;;3.13;;
19828;SDS011;10075;50.924;4.396;2022-07-23T11:42:52;7.70;;;3.17;;
19828;SDS011;10075;50.924;4.396;2022-07-23T11:45:22;5.18;;;3.30;;
19828;SDS011;10075;50.924;4.396;2022-07-23T11:47:51;5.45;;;2.40;;
19828;SDS011;10075;50.924;4.396;2022-07-23T11:50:18;4.07;;;2.30;;
19828;SDS011;10075;50.924;4.396;2022-07-23T11:52:46;4.93;;;2.38;;
19828;SDS011;10075;50.924;4.396;2022-07-23T11:55:13;4.75;;;3.25;;
19828;SDS011;10075;50.924;4.396;2022-07-23T11:57:44;5.00;;;3.70;;
19828;SDS011;10075;50.924;4.396;2022-07-23T12:00:12;4.82;;;2.75;;
19828;SDS011;10075;50.924;4.396;2022-07-23T12:02:41;6.35;;;3.47;;
19828;SDS011;10075;50.924;4.396;2022-07-23T12:05:11;5.63;;;2.53;;
19828;SDS011;10075;50.924;4.396;2022-07-23T12:07:39;6.45;;;3.80;;
19828;SDS011;10075;50.924;4.396;2022-07-23T12:10:12;4.38;;;3.65;;
19828;SDS011;10075;50.924;4.396;2022-07-23T12:12:41;4.80;;;3.50;;
19828;SDS011;10075;50.924;4.396;2022-07-23T12:15:10;6.45;;;3.80;;
19828;SDS011;10075;50.924;4.396;2022-07-23T12:17:39;3.53;;;3.10;;
19828;SDS011;10075;50.924;4.396;2022-07-23T12:20:08;5.22;;;3.10;;
19828;SDS011;10075;50.924;4.396;2022-07-23T12:22:39;7.75;;;3.67;;
19828;SDS011;10075;50.924;4.396;2022-07-23T12:25:08;9.95;;;4.20;;
19828;SDS011;10075;50.924;4.396;2022-07-23T12:27:41;5.22;;;3.90;;
19828;SDS011;10075;50.924;4.396;2022-07-23T12:30:21;4.32;;;2.80;;
19828;SDS011;10075;50.924;4.396;2022-07-23T12:32:52;5.32;;;3.30;;
19828;SDS011;10075;50.924;4.396;2022-07-23T12:35:21;4.47;;;3.45;;
19828;SDS011;10075;50.924;4.396;2022-07-23T12:37:49;3.72;;;2.75;;
19828;SDS011;10075;50.924;4.396;2022-07-23T12:40:31;6.50;;;3.38;;
19828;SDS011;10075;50.924;4.396;2022-07-23T12:43:02;8.20;;;4.90;;
19828;SDS011;10075;50.924;4.396;2022-07-23T12:45:41;5.60;;;4.35;;
19828;SDS011;10075;50.924;4.396;2022-07-23T12:48:15;5.55;;;4.50;;
19828;SDS011;10075;50.924;4.396;2022-07-23T12:50:54;5.75;;;3.90;;
19828;SDS011;10075;50.924;4.396;2022-07-23T12:53:24;7.38;;;4.63;;
19828;SDS011;10075;50.924;4.396;2022-07-23T12:55:58;5.68;;;4.22;;
19828;SDS011;10075;50.924;4.396;2022-07-23T12:58:38;6.22;;;4.43;;
19828;SDS011;10075;50.924;4.396;2022-07-23T13:01:07;6.07;;;4.50;;
19828;SDS011;10075;50.924;4.396;2022-07-23T13:03:36;5.25;;;3.88;;
19828;SDS011;10075;50.924;4.396;2022-07-23T13:06:05;4.47;;;3.17;;
19828;SDS011;10075;50.924;4.396;2022-07-23T13:08:34;5.38;;;3.03;;
19828;SDS011;10075;50.924;4.396;2022-07-23T13:11:03;4.57;;;3.65;;
19828;SDS011;10075;50.924;4.396;2022-07-23T13:13:32;5.45;;;3.60;;
19828;SDS011;10075;50.924;4.396;2022-07-23T13:16:01;5.85;;;3.83;;
19828;SDS011;10075;50.924;4.396;2022-07-23T13:18:28;7.07;;;4.28;;
19828;SDS011;10075;50.924;4.396;2022-07-23T13:20:56;4.00;;;3.15;;
19828;SDS011;10075;50.924;4.396;2022-07-23T13:23:23;6.97;;;3.35;;
19828;SDS011;10075;50.924;4.396;2022-07-23T13:25:51;6.63;;;3.53;;
19828;SDS011;10075;50.924;4.396;2022-07-23T13:28:20;5.03;;;3.35;;
19828;SDS011;10075;50.924;4.396;2022-07-23T13:30:48;7.90;;;4.40;;
19828;SDS011;10075;50.924;4.396;2022-07-23T13:33:16;6.90;;;3.83;;
19828;SDS011;10075;50.924;4.396;2022-07-23T13:35:44;5.90;;;3.30;;
19828;SDS011;10075;50.924;4.396;2022-07-23T13:38:11;7.07;;;3.22;;
19828;SDS011;10075;50.924;4.396;2022-07-23T13:40:39;4.18;;;2.67;;
19828;SDS011;10075;50.924;4.396;2022-07-23T13:43:08;5.30;;;3.40;;
19828;SDS011;10075;50.924;4.396;2022-07-23T13:45:37;7.10;;;4.30;;
19828;SDS011;10075;50.924;4.396;2022-07-23T13:48:07;5.95;;;4.32;;
19828;SDS011;10075;50.924;4.396;2022-07-23T13:50:35;5.60;;;4.07;;
19828;SDS011;10075;50.924;4.396;2022-07-23T13:53:02;4.45;;;3.28;;
19828;SDS011;10075;50.924;4.396;2022-07-23T13:55:31;5.05;;;3.65;;
19828;SDS011;10075;50.924;4.396;2022-07-23T13:57:59;5.15;;;3.47;;
19828;SDS011;10075;50.924;4.396;2022-07-23T14:00:27;6.65;;;3.10;;
19828;SDS011;10075;50.924;4.396;2022-07-23T14:02:57;4.38;;;3.00;;
19828;SDS011;10075;50.924;4.396;2022-07-23T14:05:25;4.88;;;3.08;;
19828;SDS011;10075;50.924;4.396;2022-07-23T14:07:53;5.05;;;3.17;;
19828;SDS011;10075;50.924;4.396;2022-07-23T14:10:21;6.78;;;3.28;;
19828;SDS011;10075;50.924;4.396;2022-07-23T14:12:49;6.45;;;3.15;;
19828;SDS011;10075;50.924;4.396;2022-07-23T14:15:18;7.70;;;3.83;;
19828;SDS011;10075;50.924;4.396;2022-07-23T14:17:45;6.22;;;3.45;;
19828;SDS011;10075;50.924;4.396;2022-07-23T14:20:14;9.25;;;3.55;;
19828;SDS011;10075;50.924;4.396;2022-07-23T14:22:41;5.65;;;3.30;;
19828;SDS011;10075;50.924;4.396;2022-07-23T14:25:09;5.93;;;3.42;;
19828;SDS011;10075;50.924;4.396;2022-07-23T14:27:36;6.03;;;3.47;;
19828;SDS011;10075;50.924;4.396;2022-07-23T14:30:04;5.65;;;3.08;;
19828;SDS011;10075;50.924;4.396;2022-07-23T14:32:33;6.80;;;3.20;;
19828;SDS011;10075;50.924;4.396;2022-07-23T14:35:01;7.47;;;3.65;;
19828;SDS011;10075;50.924;4.396;2022-07-23T14:37:30;6.82;;;3.10;;
19828;SDS011;10075;50.924;4.396;2022-07-23T14:39:56;3.70;;;2.92;;
19828;SDS011;10075;50.924;4.396;2022-07-23T14:42:24;4.80;;;2.90;;
19828;SDS011;10075;50.924;4.396;2022-07-23T14:44:51;3.17;;;2.83;;
19828;SDS011;10075;50.924;4.396;2022-07-23T14:47:18;5.70;;;3.30;;
19828;SDS011;10075;50.924;4.396;2022-07-23T14:49:45;5.97;;;3.03;;